sensor_id;sensor_type;location;lat;lon;timestamp;P1;durP1;ratioP1;P2;durP2;ratioP2
53521;SDS011;39398;48.382;9.802;2023-04-01T00:03:06;5.63;;;1.50;;
53521;SDS011;39398;48.382;9.802;2023-04-01T00:08:09;2.55;;;1.48;;
53521;SDS011;39398;48.382;9.802;2023-04-01T00:13:11;4.35;;;1.38;;
53521;SDS011;39398;48.382;9.802;2023-04-01T00:18:13;4.18;;;2.30;;
53521;SDS011;39398;48.382;9.802;2023-04-01T00:23:16;4.05;;;2.95;;
53521;SDS011;39398;48.382;9.802;2023-04-01T00:28:19;3.75;;;2.72;;
53521;SDS011;39398;48.382;9.802;2023-04-01T00:33:21;5.72;;;2.50;;
53521;SDS011;39398;48.382;9.802;2023-04-01T00:38:23;2.22;;;1.70;;
53521;SDS011;39398;48.382;9.802;2023-04-01T00:43:25;5.15;;;2.42;;
53521;SDS011;39398;48.382;9.802;2023-04-01T00:48:27;2.28;;;2.05;;
53521;SDS011;39398;48.382;9.802;2023-04-01T00:53:33;3.88;;;2.30;;
53521;SDS011;39398;48.382;9.802;2023-04-01T00:58:38;3.78;;;3.03;;
53521;SDS011;39398;48.382;9.802;2023-04-01T01:03:42;5.00;;;3.63;;
53521;SDS011;39398;48.382;9.802;2023-04-01T01:08:52;6.45;;;3.22;;
53521;SDS011;39398;48.382;9.802;2023-04-01T01:14:15;7.15;;;3.53;;
53521;SDS011;39398;48.382;9.802;2023-04-01T01:19:33;6.40;;;4.20;;
53521;SDS011;39398;48.382;9.802;2023-04-01T01:24:54;5.60;;;3.30;;
53521;SDS011;39398;48.382;9.802;2023-04-01T01:30:19;6.82;;;3.28;;
53521;SDS011;39398;48.382;9.802;2023-04-01T01:35:31;7.90;;;4.10;;
53521;SDS011;39398;48.382;9.802;2023-04-01T01:40:39;6.18;;;3.30;;
53521;SDS011;39398;48.382;9.802;2023-04-01T01:45:44;5.63;;;3.90;;
53521;SDS011;39398;48.382;9.802;2023-04-01T01:50:50;5.60;;;3.40;;
53521;SDS011;39398;48.382;9.802;2023-04-01T01:55:52;7.80;;;3.60;;
53521;SDS011;39398;48.382;9.802;2023-04-01T02:00:54;5.25;;;3.88;;
53521;SDS011;39398;48.382;9.802;2023-04-01T02:05:59;5.53;;;2.63;;
53521;SDS011;39398;48.382;9.802;2023-04-01T02:11:03;2.20;;;1.70;;
53521;SDS011;39398;48.382;9.802;2023-04-01T02:16:09;5.45;;;2.30;;
53521;SDS011;39398;48.382;9.802;2023-04-01T02:21:15;4.20;;;2.38;;
53521;SDS011;39398;48.382;9.802;2023-04-01T02:26:20;6.03;;;4.05;;
53521;SDS011;39398;48.382;9.802;2023-04-01T02:31:22;9.23;;;5.80;;
53521;SDS011;39398;48.382;9.802;2023-04-01T02:36:25;6.57;;;3.70;;
53521;SDS011;39398;48.382;9.802;2023-04-01T02:41:27;4.80;;;3.00;;
53521;SDS011;39398;48.382;9.802;2023-04-01T02:46:28;4.10;;;2.55;;
53521;SDS011;39398;48.382;9.802;2023-04-01T02:51:31;15.93;;;6.68;;
53521;SDS011;39398;48.382;9.802;2023-04-01T02:56:33;2.67;;;1.67;;
53521;SDS011;39398;48.382;9.802;2023-04-01T03:01:35;2.20;;;1.50;;
53521;SDS011;39398;48.382;9.802;2023-04-01T03:06:38;3.35;;;1.40;;
53521;SDS011;39398;48.382;9.802;2023-04-01T03:11:39;0.70;;;0.70;;
53521;SDS011;39398;48.382;9.802;2023-04-01T03:16:41;1.00;;;0.65;;
53521;SDS011;39398;48.382;9.802;2023-04-01T03:21:44;0.47;;;0.43;;
53521;SDS011;39398;48.382;9.802;2023-04-01T03:26:45;0.40;;;0.40;;
53521;SDS011;39398;48.382;9.802;2023-04-01T03:31:47;0.40;;;0.40;;
53521;SDS011;39398;48.382;9.802;2023-04-01T03:36:49;0.35;;;0.35;;
53521;SDS011;39398;48.382;9.802;2023-04-01T03:41:51;0.55;;;0.40;;
53521;SDS011;39398;48.382;9.802;2023-04-01T03:46:52;0.47;;;0.40;;
53521;SDS011;39398;48.382;9.802;2023-04-01T03:51:55;0.35;;;0.35;;
53521;SDS011;39398;48.382;9.802;2023-04-01T03:56:57;0.40;;;0.40;;
53521;SDS011;39398;48.382;9.802;2023-04-01T04:01:58;0.77;;;0.50;;
53521;SDS011;39398;48.382;9.802;2023-04-01T04:07:01;0.30;;;0.30;;
53521;SDS011;39398;48.382;9.802;2023-04-01T04:12:03;0.40;;;0.40;;
53521;SDS011;39398;48.382;9.802;2023-04-01T04:17:04;0.85;;;0.47;;
53521;SDS011;39398;48.382;9.802;2023-04-01T04:22:07;0.50;;;0.50;;
53521;SDS011;39398;48.382;9.802;2023-04-01T04:27:09;0.50;;;0.50;;
53521;SDS011;39398;48.382;9.802;2023-04-01T04:32:10;1.65;;;1.20;;
53521;SDS011;39398;48.382;9.802;2023-04-01T04:37:13;4.43;;;3.10;;
53521;SDS011;39398;48.382;9.802;2023-04-01T04:42:14;4.72;;;3.35;;
53521;SDS011;39398;48.382;9.802;2023-04-01T04:47:16;4.30;;;2.50;;
53521;SDS011;39398;48.382;9.802;2023-04-01T04:52:19;5.60;;;4.22;;
53521;SDS011;39398;48.382;9.802;2023-04-01T04:57:21;8.25;;;5.80;;
53521;SDS011;39398;48.382;9.802;2023-04-01T05:02:22;8.48;;;5.85;;
53521;SDS011;39398;48.382;9.802;2023-04-01T05:07:25;7.72;;;4.72;;
53521;SDS011;39398;48.382;9.802;2023-04-01T05:12:27;10.70;;;6.60;;
53521;SDS011;39398;48.382;9.802;2023-04-01T05:17:28;8.52;;;5.70;;
53521;SDS011;39398;48.382;9.802;2023-04-01T05:22:31;6.72;;;4.63;;
53521;SDS011;39398;48.382;9.802;2023-04-01T05:27:33;6.95;;;4.85;;
53521;SDS011;39398;48.382;9.802;2023-04-01T05:32:34;4.07;;;3.65;;
53521;SDS011;39398;48.382;9.802;2023-04-01T05:37:37;3.45;;;2.35;;
53521;SDS011;39398;48.382;9.802;2023-04-01T05:42:39;2.30;;;2.10;;
53521;SDS011;39398;48.382;9.802;2023-04-01T05:47:40;3.45;;;2.88;;
53521;SDS011;39398;48.382;9.802;2023-04-01T05:52:43;5.50;;;3.58;;
53521;SDS011;39398;48.382;9.802;2023-04-01T05:57:45;4.90;;;3.15;;
53521;SDS011;39398;48.382;9.802;2023-04-01T06:02:47;6.93;;;4.43;;
53521;SDS011;39398;48.382;9.802;2023-04-01T06:07:50;9.07;;;5.63;;
53521;SDS011;39398;48.382;9.802;2023-04-01T06:12:58;6.63;;;5.05;;
53521;SDS011;39398;48.382;9.802;2023-04-01T06:23:55;1.80;;;1.30;;
53521;SDS011;39398;48.382;9.802;2023-04-01T06:34:45;2.53;;;1.52;;
53521;SDS011;39398;48.382;9.802;2023-04-01T06:40:08;2.88;;;1.10;;
53521;SDS011;39398;48.382;9.802;2023-04-01T06:45:27;1.02;;;0.93;;
53521;SDS011;39398;48.382;9.802;2023-04-01T06:50:36;2.88;;;0.85;;
53521;SDS011;39398;48.382;9.802;2023-04-01T06:55:46;2.65;;;0.80;;
53521;SDS011;39398;48.382;9.802;2023-04-01T07:00:51;4.47;;;2.50;;
53521;SDS011;39398;48.382;9.802;2023-04-01T07:05:55;1.52;;;1.20;;
53521;SDS011;39398;48.382;9.802;2023-04-01T07:11:02;3.10;;;1.25;;
53521;SDS011;39398;48.382;9.802;2023-04-01T07:16:06;1.20;;;1.10;;
53521;SDS011;39398;48.382;9.802;2023-04-01T07:21:25;1.73;;;1.30;;
53521;SDS011;39398;48.382;9.802;2023-04-01T07:26:33;1.45;;;0.90;;
53521;SDS011;39398;48.382;9.802;2023-04-01T07:31:40;1.60;;;1.10;;
53521;SDS011;39398;48.382;9.802;2023-04-01T07:37:07;2.45;;;1.20;;
53521;SDS011;39398;48.382;9.802;2023-04-01T07:42:18;2.03;;;1.58;;
53521;SDS011;39398;48.382;9.802;2023-04-01T07:47:34;1.40;;;1.30;;
53521;SDS011;39398;48.382;9.802;2023-04-01T07:52:48;3.70;;;1.23;;
53521;SDS011;39398;48.382;9.802;2023-04-01T07:57:59;2.80;;;1.60;;
53521;SDS011;39398;48.382;9.802;2023-04-01T08:03:16;2.08;;;1.20;;
53521;SDS011;39398;48.382;9.802;2023-04-01T08:08:32;2.00;;;1.25;;
53521;SDS011;39398;48.382;9.802;2023-04-01T08:13:45;2.58;;;1.25;;
53521;SDS011;39398;48.382;9.802;2023-04-01T08:18:56;1.77;;;1.20;;
53521;SDS011;39398;48.382;9.802;2023-04-01T08:24:06;1.17;;;0.80;;
53521;SDS011;39398;48.382;9.802;2023-04-01T08:29:20;1.40;;;1.13;;
53521;SDS011;39398;48.382;9.802;2023-04-01T08:34:24;1.98;;;1.40;;
53521;SDS011;39398;48.382;9.802;2023-04-01T08:39:29;1.27;;;1.02;;
53521;SDS011;39398;48.382;9.802;2023-04-01T08:50:19;2.75;;;1.40;;
53521;SDS011;39398;48.382;9.802;2023-04-01T08:55:37;1.85;;;0.90;;
53521;SDS011;39398;48.382;9.802;2023-04-01T09:00:47;0.80;;;0.80;;
53521;SDS011;39398;48.382;9.802;2023-04-01T09:11:28;3.00;;;2.42;;
53521;SDS011;39398;48.382;9.802;2023-04-01T09:22:25;1.13;;;0.77;;
53521;SDS011;39398;48.382;9.802;2023-04-01T09:27:40;0.60;;;0.60;;
53521;SDS011;39398;48.382;9.802;2023-04-01T09:38:21;0.70;;;0.70;;
53521;SDS011;39398;48.382;9.802;2023-04-01T09:43:28;1.75;;;0.80;;
53521;SDS011;39398;48.382;9.802;2023-04-01T09:48:42;0.63;;;0.63;;
53521;SDS011;39398;48.382;9.802;2023-04-01T09:54:10;1.70;;;0.65;;
53521;SDS011;39398;48.382;9.802;2023-04-01T09:59:45;0.88;;;0.88;;
53521;SDS011;39398;48.382;9.802;2023-04-01T10:10:40;0.80;;;0.80;;
53521;SDS011;39398;48.382;9.802;2023-04-01T10:21:50;1.25;;;1.20;;
53521;SDS011;39398;48.382;9.802;2023-04-01T10:27:25;1.88;;;1.10;;
53521;SDS011;39398;48.382;9.802;2023-04-01T10:50:22;1.80;;;1.70;;
53521;SDS011;39398;48.382;9.802;2023-04-01T11:01:17;1.30;;;1.20;;
53521;SDS011;39398;48.382;9.802;2023-04-01T11:12:45;1.60;;;1.50;;
53521;SDS011;39398;48.382;9.802;2023-04-01T11:18:12;1.17;;;0.82;;
53521;SDS011;39398;48.382;9.802;2023-04-01T11:23:53;0.70;;;0.70;;
53521;SDS011;39398;48.382;9.802;2023-04-01T11:29:11;1.20;;;1.10;;
53521;SDS011;39398;48.382;9.802;2023-04-01T11:34:48;1.10;;;1.10;;
53521;SDS011;39398;48.382;9.802;2023-04-01T11:40:06;1.30;;;1.20;;
53521;SDS011;39398;48.382;9.802;2023-04-01T11:45:24;1.02;;;0.98;;
53521;SDS011;39398;48.382;9.802;2023-04-01T11:50:39;1.38;;;1.02;;
53521;SDS011;39398;48.382;9.802;2023-04-01T12:01:26;1.15;;;1.13;;
53521;SDS011;39398;48.382;9.802;2023-04-01T12:06:35;1.10;;;1.10;;
53521;SDS011;39398;48.382;9.802;2023-04-01T12:11:48;0.90;;;0.90;;
53521;SDS011;39398;48.382;9.802;2023-04-01T12:17:02;0.90;;;0.90;;
53521;SDS011;39398;48.382;9.802;2023-04-01T12:22:16;0.63;;;0.63;;
53521;SDS011;39398;48.382;9.802;2023-04-01T12:27:31;0.60;;;0.60;;
53521;SDS011;39398;48.382;9.802;2023-04-01T12:32:41;1.77;;;1.58;;
53521;SDS011;39398;48.382;9.802;2023-04-01T12:37:50;0.40;;;0.40;;
53521;SDS011;39398;48.382;9.802;2023-04-01T12:43:05;0.40;;;0.32;;
53521;SDS011;39398;48.382;9.802;2023-04-01T12:59:38;0.40;;;0.40;;
53521;SDS011;39398;48.382;9.802;2023-04-01T13:05:01;0.40;;;0.40;;
53521;SDS011;39398;48.382;9.802;2023-04-01T13:10:20;3.53;;;1.00;;
53521;SDS011;39398;48.382;9.802;2023-04-01T13:15:36;0.68;;;0.68;;
53521;SDS011;39398;48.382;9.802;2023-04-01T13:25:51;1.13;;;0.57;;
53521;SDS011;39398;48.382;9.802;2023-04-01T13:31:19;0.50;;;0.50;;
53521;SDS011;39398;48.382;9.802;2023-04-01T13:36:42;0.40;;;0.40;;
53521;SDS011;39398;48.382;9.802;2023-04-01T13:42:02;0.65;;;0.65;;
53521;SDS011;39398;48.382;9.802;2023-04-01T13:47:30;0.85;;;0.50;;
53521;SDS011;39398;48.382;9.802;2023-04-01T13:53:03;1.05;;;0.40;;
53521;SDS011;39398;48.382;9.802;2023-04-01T13:58:43;0.50;;;0.50;;
53521;SDS011;39398;48.382;9.802;2023-04-01T14:04:16;0.40;;;0.40;;
53521;SDS011;39398;48.382;9.802;2023-04-01T14:09:44;0.30;;;0.30;;
53521;SDS011;39398;48.382;9.802;2023-04-01T14:15:14;0.77;;;0.77;;
53521;SDS011;39398;48.382;9.802;2023-04-01T14:20:35;1.02;;;0.93;;
53521;SDS011;39398;48.382;9.802;2023-04-01T14:25:48;0.95;;;0.50;;
53521;SDS011;39398;48.382;9.802;2023-04-01T14:31:18;0.95;;;0.47;;
53521;SDS011;39398;48.382;9.802;2023-04-01T14:36:35;0.40;;;0.40;;
53521;SDS011;39398;48.382;9.802;2023-04-01T14:41:50;0.30;;;0.30;;
53521;SDS011;39398;48.382;9.802;2023-04-01T14:47:20;0.40;;;0.40;;
53521;SDS011;39398;48.382;9.802;2023-04-01T14:52:46;0.40;;;0.40;;
53521;SDS011;39398;48.382;9.802;2023-04-01T15:03:19;0.50;;;0.50;;
53521;SDS011;39398;48.382;9.802;2023-04-01T15:08:26;0.40;;;0.40;;
53521;SDS011;39398;48.382;9.802;2023-04-01T15:13:35;0.40;;;0.40;;
53521;SDS011;39398;48.382;9.802;2023-04-01T15:19:05;0.40;;;0.40;;
53521;SDS011;39398;48.382;9.802;2023-04-01T15:24:17;2.13;;;1.50;;
53521;SDS011;39398;48.382;9.802;2023-04-01T15:29:28;0.50;;;0.50;;
53521;SDS011;39398;48.382;9.802;2023-04-01T15:34:51;1.35;;;0.60;;
53521;SDS011;39398;48.382;9.802;2023-04-01T15:40:01;5.95;;;2.90;;
53521;SDS011;39398;48.382;9.802;2023-04-01T15:50:59;1.70;;;0.85;;
53521;SDS011;39398;48.382;9.802;2023-04-01T15:56:19;0.50;;;0.40;;
53521;SDS011;39398;48.382;9.802;2023-04-01T16:01:34;0.50;;;0.50;;
53521;SDS011;39398;48.382;9.802;2023-04-01T16:06:48;0.85;;;0.80;;
53521;SDS011;39398;48.382;9.802;2023-04-01T16:12:11;0.85;;;0.73;;
53521;SDS011;39398;48.382;9.802;2023-04-01T16:17:24;2.05;;;0.88;;
53521;SDS011;39398;48.382;9.802;2023-04-01T16:22:32;3.63;;;0.80;;
53521;SDS011;39398;48.382;9.802;2023-04-01T16:27:40;1.00;;;0.90;;
53521;SDS011;39398;48.382;9.802;2023-04-01T16:32:50;0.95;;;0.93;;
53521;SDS011;39398;48.382;9.802;2023-04-01T16:37:59;0.85;;;0.50;;
53521;SDS011;39398;48.382;9.802;2023-04-01T16:43:06;3.37;;;0.60;;
53521;SDS011;39398;48.382;9.802;2023-04-01T16:48:13;1.20;;;0.73;;
53521;SDS011;39398;48.382;9.802;2023-04-01T16:53:17;1.25;;;0.60;;
53521;SDS011;39398;48.382;9.802;2023-04-01T16:58:26;1.15;;;1.00;;
53521;SDS011;39398;48.382;9.802;2023-04-01T17:03:36;1.10;;;1.00;;
53521;SDS011;39398;48.382;9.802;2023-04-01T17:08:47;1.17;;;0.90;;
53521;SDS011;39398;48.382;9.802;2023-04-01T17:14:01;2.80;;;1.13;;
53521;SDS011;39398;48.382;9.802;2023-04-01T17:19:17;2.03;;;0.90;;
53521;SDS011;39398;48.382;9.802;2023-04-01T17:24:32;1.33;;;0.87;;
53521;SDS011;39398;48.382;9.802;2023-04-01T17:29:55;1.20;;;1.02;;
53521;SDS011;39398;48.382;9.802;2023-04-01T17:35:05;3.95;;;2.65;;
53521;SDS011;39398;48.382;9.802;2023-04-01T17:40:20;3.00;;;2.38;;
53521;SDS011;39398;48.382;9.802;2023-04-01T17:45:33;0.88;;;0.80;;
53521;SDS011;39398;48.382;9.802;2023-04-01T17:50:46;3.42;;;1.35;;
53521;SDS011;39398;48.382;9.802;2023-04-01T17:56:08;1.25;;;0.90;;
53521;SDS011;39398;48.382;9.802;2023-04-01T18:01:21;3.10;;;2.22;;
53521;SDS011;39398;48.382;9.802;2023-04-01T18:06:35;1.73;;;0.90;;
53521;SDS011;39398;48.382;9.802;2023-04-01T18:11:50;3.67;;;2.13;;
53521;SDS011;39398;48.382;9.802;2023-04-01T18:17:02;2.13;;;1.55;;
53521;SDS011;39398;48.382;9.802;2023-04-01T18:22:17;1.30;;;1.20;;
53521;SDS011;39398;48.382;9.802;2023-04-01T18:27:22;2.65;;;1.70;;
53521;SDS011;39398;48.382;9.802;2023-04-01T18:32:31;1.40;;;0.95;;
53521;SDS011;39398;48.382;9.802;2023-04-01T18:37:38;1.90;;;0.70;;
53521;SDS011;39398;48.382;9.802;2023-04-01T18:42:46;1.55;;;0.80;;
53521;SDS011;39398;48.382;9.802;2023-04-01T18:48:01;1.75;;;1.00;;
53521;SDS011;39398;48.382;9.802;2023-04-01T18:53:15;1.13;;;1.00;;
53521;SDS011;39398;48.382;9.802;2023-04-01T18:58:24;3.00;;;1.25;;
53521;SDS011;39398;48.382;9.802;2023-04-01T19:03:31;1.25;;;1.15;;
53521;SDS011;39398;48.382;9.802;2023-04-01T19:08:41;1.95;;;1.10;;
53521;SDS011;39398;48.382;9.802;2023-04-01T19:13:46;11.30;;;6.60;;
53521;SDS011;39398;48.382;9.802;2023-04-01T19:18:58;1.27;;;0.90;;
53521;SDS011;39398;48.382;9.802;2023-04-01T19:24:22;1.13;;;1.00;;
53521;SDS011;39398;48.382;9.802;2023-04-01T19:29:45;2.65;;;1.40;;
53521;SDS011;39398;48.382;9.802;2023-04-01T19:34:56;0.80;;;0.80;;
53521;SDS011;39398;48.382;9.802;2023-04-01T19:40:20;2.70;;;1.00;;
53521;SDS011;39398;48.382;9.802;2023-04-01T19:45:34;1.38;;;1.00;;
53521;SDS011;39398;48.382;9.802;2023-04-01T19:50:42;1.70;;;0.95;;
53521;SDS011;39398;48.382;9.802;2023-04-01T19:55:55;2.15;;;0.70;;
53521;SDS011;39398;48.382;9.802;2023-04-01T20:01:03;1.88;;;0.90;;
53521;SDS011;39398;48.382;9.802;2023-04-01T20:06:08;9.02;;;5.15;;
53521;SDS011;39398;48.382;9.802;2023-04-01T20:11:24;0.70;;;0.70;;
53521;SDS011;39398;48.382;9.802;2023-04-01T20:16:43;1.20;;;0.70;;
53521;SDS011;39398;48.382;9.802;2023-04-01T20:21:50;0.80;;;0.80;;
53521;SDS011;39398;48.382;9.802;2023-04-01T20:26:58;0.70;;;0.70;;
53521;SDS011;39398;48.382;9.802;2023-04-01T20:32:05;0.70;;;0.70;;
53521;SDS011;39398;48.382;9.802;2023-04-01T20:37:15;0.80;;;0.80;;
53521;SDS011;39398;48.382;9.802;2023-04-01T20:42:37;1.00;;;0.90;;
53521;SDS011;39398;48.382;9.802;2023-04-01T20:47:57;0.60;;;0.60;;
53521;SDS011;39398;48.382;9.802;2023-04-01T20:53:14;4.00;;;2.50;;
53521;SDS011;39398;48.382;9.802;2023-04-01T20:58:20;2.78;;;1.80;;
53521;SDS011;39398;48.382;9.802;2023-04-01T21:03:28;4.07;;;0.90;;
53521;SDS011;39398;48.382;9.802;2023-04-01T21:08:53;1.00;;;0.90;;
53521;SDS011;39398;48.382;9.802;2023-04-01T21:14:24;1.92;;;0.90;;
53521;SDS011;39398;48.382;9.802;2023-04-01T21:19:45;1.10;;;1.10;;
53521;SDS011;39398;48.382;9.802;2023-04-01T21:24:59;6.45;;;2.92;;
53521;SDS011;39398;48.382;9.802;2023-04-01T21:30:19;1.45;;;1.38;;
53521;SDS011;39398;48.382;9.802;2023-04-01T21:35:35;0.80;;;0.80;;
53521;SDS011;39398;48.382;9.802;2023-04-01T21:40:46;1.20;;;1.10;;
53521;SDS011;39398;48.382;9.802;2023-04-01T21:46:07;2.60;;;1.40;;
53521;SDS011;39398;48.382;9.802;2023-04-01T21:57:22;2.22;;;1.20;;
53521;SDS011;39398;48.382;9.802;2023-04-01T22:02:54;1.30;;;1.20;;
53521;SDS011;39398;48.382;9.802;2023-04-01T22:08:32;1.70;;;1.38;;
53521;SDS011;39398;48.382;9.802;2023-04-01T22:13:41;3.05;;;1.35;;
53521;SDS011;39398;48.382;9.802;2023-04-01T22:18:53;4.82;;;1.50;;
53521;SDS011;39398;48.382;9.802;2023-04-01T22:24:04;1.90;;;1.30;;
53521;SDS011;39398;48.382;9.802;2023-04-01T22:29:12;1.42;;;1.33;;
53521;SDS011;39398;48.382;9.802;2023-04-01T22:39:29;3.37;;;1.60;;
53521;SDS011;39398;48.382;9.802;2023-04-01T22:44:45;3.92;;;2.13;;
53521;SDS011;39398;48.382;9.802;2023-04-01T22:50:01;3.78;;;1.73;;
53521;SDS011;39398;48.382;9.802;2023-04-01T22:55:10;1.83;;;1.35;;
53521;SDS011;39398;48.382;9.802;2023-04-01T23:00:17;1.83;;;1.70;;
53521;SDS011;39398;48.382;9.802;2023-04-01T23:05:25;1.38;;;1.27;;
53521;SDS011;39398;48.382;9.802;2023-04-01T23:10:30;5.38;;;1.40;;
53521;SDS011;39398;48.382;9.802;2023-04-01T23:15:42;2.80;;;1.10;;
53521;SDS011;39398;48.382;9.802;2023-04-01T23:26:12;3.13;;;1.10;;
53521;SDS011;39398;48.382;9.802;2023-04-01T23:31:29;4.00;;;1.35;;
53521;SDS011;39398;48.382;9.802;2023-04-01T23:36:37;1.33;;;1.00;;
53521;SDS011;39398;48.382;9.802;2023-04-01T23:41:41;1.20;;;1.10;;
53521;SDS011;39398;48.382;9.802;2023-04-01T23:46:44;3.50;;;1.10;;
53521;SDS011;39398;48.382;9.802;2023-04-01T23:51:50;0.98;;;0.98;;
53521;SDS011;39398;48.382;9.802;2023-04-01T23:56:55;1.30;;;1.00;;
